Time;durP1;ratioP1;P1;durP2;ratioP2;P2;SDS_P1;SDS_P2;PMS_P1;PMS_P2;Temp;Humidity;BMP_temperature;BMP_pressure;BME280_temperature;BME280_humidity;BME280_pressure;Samples;Min_cycle;Max_cycle;Signal;HPM_P1;HPM_P2
2023/08/12 00:00:34;;;;;;;14.73;4.45;;;;;;;;;;5058793;28;20079;-65
2023/08/12 00:03:00;;;;;;;15.30;4.75;;;;;;;;;;5044495;28;20021;-65
2023/08/12 00:05:26;;;;;;;14.00;4.05;;;;;;;;;;5052935;28;20107;-65
2023/08/12 00:07:52;;;;;;;12.20;4.18;;;;;;;;;;5051745;28;20033;-65
2023/08/12 00:10:18;;;;;;;15.43;3.85;;;;;;;;;;5059498;28;20104;-66
2023/08/12 00:12:44;;;;;;;17.25;5.10;;;;;;;;;;5059804;28;20567;-65
2023/08/12 00:15:11;;;;;;;14.75;4.93;;;;;;;;;;5052103;28;20063;-64
2023/08/12 00:17:37;;;;;;;11.65;3.67;;;;;;;;;;5057818;28;20312;-65
2023/08/12 00:20:10;;;;;;;13.63;4.85;;;;;;;;;;5056416;28;20017;-65
2023/08/12 00:22:36;;;;;;;12.35;3.78;;;;;;;;;;5051913;28;20040;-65
2023/08/12 00:25:02;;;;;;;12.27;4.40;;;;;;;;;;5055574;28;20142;-65
2023/08/12 00:27:29;;;;;;;16.13;4.53;;;;;;;;;;5054019;28;20550;-66
2023/08/12 00:29:55;;;;;;;11.18;3.58;;;;;;;;;;5065590;28;20127;-66
2023/08/12 00:32:21;;;;;;;11.57;3.90;;;;;;;;;;5055738;28;20036;-65
2023/08/12 00:34:47;;;;;;;9.15;4.53;;;;;;;;;;5056736;28;20079;-65
2023/08/12 00:37:13;;;;;;;17.15;4.28;;;;;;;;;;5052167;28;20111;-66
2023/08/12 00:39:40;;;;;;;10.40;3.80;;;;;;;;;;5059098;28;20169;-67
2023/08/12 00:42:06;;;;;;;10.77;3.58;;;;;;;;;;5050492;28;20108;-66
2023/08/12 00:44:32;;;;;;;13.00;3.58;;;;;;;;;;5052649;28;20031;-66
2023/08/12 00:46:58;;;;;;;10.23;4.07;;;;;;;;;;5049695;28;20182;-66
2023/08/12 00:49:25;;;;;;;10.23;3.15;;;;;;;;;;5044787;28;21532;-65
2023/08/12 00:51:53;;;;;;;12.15;3.58;;;;;;;;;;5055260;28;20040;-66
2023/08/12 00:54:19;;;;;;;11.70;3.53;;;;;;;;;;5054529;28;20044;-66
2023/08/12 00:56:46;;;;;;;10.50;3.60;;;;;;;;;;5051803;28;20471;-67
2023/08/12 00:59:12;;;;;;;10.63;3.92;;;;;;;;;;5059120;28;20035;-66
2023/08/12 01:01:40;;;;;;;9.88;5.32;;;;;;;;;;5054841;28;20523;-67
2023/08/12 01:04:07;;;;;;;11.30;3.25;;;;;;;;;;5062878;28;20422;-66
2023/08/12 01:06:33;;;;;;;9.13;3.58;;;;;;;;;;5050597;28;20033;-66
2023/08/12 01:08:59;;;;;;;17.77;4.38;;;;;;;;;;5060752;28;20181;-66
2023/08/12 01:11:30;;;;;;;14.57;3.55;;;;;;;;;;5060946;28;20468;-66
2023/08/12 01:14:04;;;;;;;11.35;3.88;;;;;;;;;;5053249;28;20150;-66
2023/08/12 01:16:32;;;;;;;11.90;3.53;;;;;;;;;;5070929;28;20050;-66
2023/08/12 01:18:59;;;;;;;12.88;3.40;;;;;;;;;;5048111;28;20024;-66
2023/08/12 01:21:25;;;;;;;11.88;3.75;;;;;;;;;;5051689;28;20447;-66
2023/08/12 01:23:51;;;;;;;15.88;4.28;;;;;;;;;;5047151;28;20086;-67
2023/08/12 01:26:17;;;;;;;14.00;3.70;;;;;;;;;;5055049;28;20085;-66
2023/08/12 01:28:43;;;;;;;6.93;3.05;;;;;;;;;;5062696;28;20035;-66
2023/08/12 01:31:12;;;;;;;13.75;4.35;;;;;;;;;;5062634;28;20020;-66
2023/08/12 01:33:38;;;;;;;10.10;3.97;;;;;;;;;;5060090;28;20391;-66
2023/08/12 01:36:13;;;;;;;11.88;4.45;;;;;;;;;;5058565;28;20041;-66
2023/08/12 01:38:40;;;;;;;8.65;3.92;;;;;;;;;;5053703;28;20107;-66
2023/08/12 01:41:08;;;;;;;10.32;3.15;;;;;;;;;;5049068;28;20044;-66
2023/08/12 01:43:34;;;;;;;7.68;3.30;;;;;;;;;;5054911;28;20029;-66
2023/08/12 01:46:00;;;;;;;9.02;3.85;;;;;;;;;;5052889;28;20039;-67
2023/08/12 01:48:26;;;;;;;13.52;3.33;;;;;;;;;;5050566;28;20025;-68
2023/08/12 01:50:53;;;;;;;10.93;4.13;;;;;;;;;;5062132;28;20487;-66
2023/08/12 01:53:19;;;;;;;9.20;3.60;;;;;;;;;;5046845;28;20124;-66
2023/08/12 01:55:45;;;;;;;12.63;3.78;;;;;;;;;;5042864;28;20037;-67
2023/08/12 01:58:12;;;;;;;14.43;4.80;;;;;;;;;;5054894;28;20024;-66
2023/08/12 02:00:38;;;;;;;13.48;3.33;;;;;;;;;;5037488;28;20108;-66
2023/08/12 02:03:04;;;;;;;16.95;3.85;;;;;;;;;;5041026;28;20549;-66
2023/08/12 02:05:30;;;;;;;12.75;3.30;;;;;;;;;;5045276;28;20130;-66
2023/08/12 02:07:56;;;;;;;9.00;3.60;;;;;;;;;;5055099;28;20385;-66
2023/08/12 02:10:22;;;;;;;11.45;3.33;;;;;;;;;;5054524;28;20040;-66
2023/08/12 02:12:49;;;;;;;13.88;3.72;;;;;;;;;;5052954;28;20035;-66
2023/08/12 02:15:15;;;;;;;10.15;3.03;;;;;;;;;;5065152;28;20056;-66
2023/08/12 02:17:41;;;;;;;13.40;3.80;;;;;;;;;;5050819;28;20060;-66
2023/08/12 02:20:07;;;;;;;11.65;3.15;;;;;;;;;;5046936;28;20032;-66
2023/08/12 02:22:33;;;;;;;12.68;2.80;;;;;;;;;;5037396;28;20458;-66
2023/08/12 02:24:59;;;;;;;9.63;3.65;;;;;;;;;;5047642;28;20052;-67
2023/08/12 02:27:26;;;;;;;9.55;3.40;;;;;;;;;;5051401;28;20717;-66
2023/08/12 02:29:52;;;;;;;6.93;2.40;;;;;;;;;;5054544;28;20247;-66
2023/08/12 02:32:18;;;;;;;6.47;2.40;;;;;;;;;;5072628;28;20060;-66
2023/08/12 02:34:44;;;;;;;7.85;2.92;;;;;;;;;;5055474;28;20128;-67
2023/08/12 02:37:12;;;;;;;9.85;2.63;;;;;;;;;;5046808;28;20021;-67
2023/08/12 02:39:38;;;;;;;7.55;2.85;;;;;;;;;;5064550;28;20116;-66
2023/08/12 02:42:04;;;;;;;5.55;2.80;;;;;;;;;;5054336;28;20028;-66
2023/08/12 02:44:30;;;;;;;8.55;2.63;;;;;;;;;;5060746;28;20020;-66
2023/08/12 02:46:57;;;;;;;7.82;2.40;;;;;;;;;;5060809;28;20381;-66
2023/08/12 02:49:23;;;;;;;7.22;2.53;;;;;;;;;;5054202;28;20496;-66
2023/08/12 02:51:49;;;;;;;6.72;2.42;;;;;;;;;;5061393;28;20040;-66
2023/08/12 02:54:15;;;;;;;9.07;2.10;;;;;;;;;;5056350;28;20036;-67
2023/08/12 02:56:41;;;;;;;6.57;2.30;;;;;;;;;;5052122;28;20096;-66
2023/08/12 02:59:07;;;;;;;9.73;3.30;;;;;;;;;;5058538;28;20091;-67
2023/08/12 03:01:33;;;;;;;5.82;2.28;;;;;;;;;;5050268;28;20039;-67
2023/08/12 03:03:59;;;;;;;9.25;2.35;;;;;;;;;;5061482;28;20490;-67
2023/08/12 03:06:25;;;;;;;7.40;2.33;;;;;;;;;;5059666;28;20024;-66
2023/08/12 03:08:51;;;;;;;9.63;2.92;;;;;;;;;;5058552;28;20059;-65
2023/08/12 03:11:19;;;;;;;8.25;2.40;;;;;;;;;;5049821;28;20028;-67
2023/08/12 03:13:45;;;;;;;10.30;2.75;;;;;;;;;;5063403;28;20534;-66
2023/08/12 03:16:15;;;;;;;6.55;2.55;;;;;;;;;;5060580;28;20123;-66
2023/08/12 03:18:41;;;;;;;6.82;2.45;;;;;;;;;;5059742;28;20456;-67
2023/08/12 03:21:08;;;;;;;10.18;2.70;;;;;;;;;;5063044;28;20026;-66
2023/08/12 03:23:38;;;;;;;10.35;3.33;;;;;;;;;;5062222;28;20024;-66
2023/08/12 03:26:04;;;;;;;13.77;2.80;;;;;;;;;;5063384;28;20037;-65
2023/08/12 03:28:31;;;;;;;8.82;3.13;;;;;;;;;;5057573;28;20224;-66
2023/08/12 03:30:57;;;;;;;7.57;2.38;;;;;;;;;;5063718;28;20028;-66
2023/08/12 03:33:23;;;;;;;8.75;3.10;;;;;;;;;;5060310;28;20101;-65
2023/08/12 03:35:50;;;;;;;8.40;2.25;;;;;;;;;;5056906;28;20083;-66
2023/08/12 03:38:16;;;;;;;5.28;2.42;;;;;;;;;;5053831;28;20542;-65
2023/08/12 03:40:42;;;;;;;6.85;2.30;;;;;;;;;;5056928;28;20021;-65
2023/08/12 03:43:09;;;;;;;5.78;2.35;;;;;;;;;;5067546;28;20073;-65
2023/08/12 03:45:42;;;;;;;9.93;2.90;;;;;;;;;;5051071;28;20037;-66
2023/08/12 03:48:08;;;;;;;5.20;2.03;;;;;;;;;;5053886;28;20480;-66
2023/08/12 03:50:34;;;;;;;4.97;2.03;;;;;;;;;;5058526;28;20120;-65
2023/08/12 03:53:01;;;;;;;8.35;2.47;;;;;;;;;;5058446;28;20078;-66
2023/08/12 03:55:27;;;;;;;9.07;2.58;;;;;;;;;;5066348;28;20533;-66
2023/08/12 03:57:53;;;;;;;6.18;2.30;;;;;;;;;;5056531;28;20036;-66
2023/08/12 04:00:19;;;;;;;12.60;3.13;;;;;;;;;;5064008;28;20034;-66
2023/08/12 04:02:46;;;;;;;7.68;2.42;;;;;;;;;;5062328;28;20039;-65
2023/08/12 04:05:12;;;;;;;9.88;2.67;;;;;;;;;;5057905;28;20515;-66
2023/08/12 04:07:38;;;;;;;11.88;3.08;;;;;;;;;;5054591;28;20132;-66
2023/08/12 04:10:04;;;;;;;4.20;2.22;;;;;;;;;;5059190;28;20055;-66
2023/08/12 04:12:30;;;;;;;7.22;2.40;;;;;;;;;;5052106;28;20032;-65
2023/08/12 04:14:56;;;;;;;12.30;2.97;;;;;;;;;;5059141;28;20033;-66
2023/08/12 04:17:23;;;;;;;6.78;3.20;;;;;;;;;;5060444;28;20068;-66
2023/08/12 04:19:49;;;;;;;6.60;2.88;;;;;;;;;;5054975;28;20106;-66
2023/08/12 04:22:16;;;;;;;4.15;2.35;;;;;;;;;;5050052;28;20032;-66
2023/08/12 04:24:42;;;;;;;7.05;2.45;;;;;;;;;;5050360;28;20029;-66
2023/08/12 04:27:08;;;;;;;6.43;2.40;;;;;;;;;;5063943;28;20029;-66
2023/08/12 04:29:35;;;;;;;6.72;2.78;;;;;;;;;;5065509;28;20040;-65
2023/08/12 04:32:01;;;;;;;9.55;2.47;;;;;;;;;;5067534;28;20235;-66
2023/08/12 04:34:27;;;;;;;4.22;1.88;;;;;;;;;;5053414;28;20500;-65
2023/08/12 04:36:54;;;;;;;9.10;2.45;;;;;;;;;;5046780;28;20031;-66
2023/08/12 04:39:20;;;;;;;6.85;3.20;;;;;;;;;;5066359;28;20486;-66
2023/08/12 04:41:46;;;;;;;11.05;3.13;;;;;;;;;;5065439;28;20035;-66
2023/08/12 04:44:12;;;;;;;11.25;3.72;;;;;;;;;;5052614;28;20444;-67
2023/08/12 04:46:38;;;;;;;6.38;2.22;;;;;;;;;;5060324;28;20033;-66
2023/08/12 04:49:04;;;;;;;9.18;2.47;;;;;;;;;;5055470;28;20031;-67
2023/08/12 04:51:31;;;;;;;4.70;2.50;;;;;;;;;;5055420;28;20480;-66
2023/08/12 04:53:57;;;;;;;7.55;2.10;;;;;;;;;;5056786;28;20017;-67
2023/08/12 04:56:25;;;;;;;5.68;2.28;;;;;;;;;;5059547;28;20060;-66
2023/08/12 04:58:51;;;;;;;7.25;2.80;;;;;;;;;;5056967;28;20078;-66
2023/08/12 05:01:17;;;;;;;11.15;2.67;;;;;;;;;;5051075;28;20416;-67
2023/08/12 05:03:43;;;;;;;4.82;2.20;;;;;;;;;;5050231;28;20044;-67
2023/08/12 05:06:09;;;;;;;5.88;2.30;;;;;;;;;;5050186;28;20033;-67
2023/08/12 05:08:36;;;;;;;8.68;2.30;;;;;;;;;;5053807;28;20667;-67
2023/08/12 05:11:02;;;;;;;10.13;3.05;;;;;;;;;;5055404;28;20028;-66
2023/08/12 05:13:29;;;;;;;9.48;2.55;;;;;;;;;;5050624;28;20119;-66
2023/08/12 05:15:55;;;;;;;9.25;2.85;;;;;;;;;;5057378;28;20616;-67
2023/08/12 05:18:26;;;;;;;9.95;2.40;;;;;;;;;;5050622;28;20033;-66
2023/08/12 05:20:52;;;;;;;5.18;2.22;;;;;;;;;;5053634;28;20483;-66
2023/08/12 05:23:20;;;;;;;4.40;2.83;;;;;;;;;;5055229;28;20163;-67
2023/08/12 05:25:46;;;;;;;7.47;3.50;;;;;;;;;;5049472;28;20033;-66
2023/08/12 05:28:13;;;;;;;7.88;2.55;;;;;;;;;;5058077;28;20446;-66
2023/08/12 05:30:39;;;;;;;8.07;2.50;;;;;;;;;;5057273;28;20024;-67
2023/08/12 05:33:05;;;;;;;4.88;2.20;;;;;;;;;;5050993;28;20492;-66
2023/08/12 05:35:36;;;;;;;5.50;2.25;;;;;;;;;;5055740;28;20136;-67
2023/08/12 05:38:02;;;;;;;7.57;2.90;;;;;;;;;;5053718;28;20246;-66
2023/08/12 05:40:28;;;;;;;4.95;2.53;;;;;;;;;;5050877;28;20459;-67
2023/08/12 05:42:54;;;;;;;5.22;2.88;;;;;;;;;;5051452;28;20575;-66
2023/08/12 05:45:20;;;;;;;6.43;2.20;;;;;;;;;;5051099;28;20025;-66
2023/08/12 05:47:46;;;;;;;8.52;2.40;;;;;;;;;;5053292;28;20526;-66
2023/08/12 05:50:13;;;;;;;7.13;2.33;;;;;;;;;;5051568;28;20099;-67
2023/08/12 05:52:39;;;;;;;6.82;3.00;;;;;;;;;;5052233;28;20078;-66
2023/08/12 05:55:05;;;;;;;5.22;3.22;;;;;;;;;;5057492;28;20485;-66
2023/08/12 05:57:31;;;;;;;6.95;2.50;;;;;;;;;;5060246;28;20035;-66
2023/08/12 05:59:57;;;;;;;6.95;2.58;;;;;;;;;;5045303;28;20515;-66
2023/08/12 06:02:23;;;;;;;6.20;2.10;;;;;;;;;;5045118;28;20464;-67
2023/08/12 06:04:49;;;;;;;6.50;2.35;;;;;;;;;;5057247;28;20033;-66
2023/08/12 06:07:16;;;;;;;7.03;2.40;;;;;;;;;;5054177;28;20515;-67
2023/08/12 06:09:42;;;;;;;5.20;2.10;;;;;;;;;;5056203;28;20079;-67
2023/08/12 06:12:08;;;;;;;3.80;1.80;;;;;;;;;;5055659;28;20044;-66
2023/08/12 06:14:39;;;;;;;8.73;2.15;;;;;;;;;;5056407;28;20028;-66
2023/08/12 06:17:05;;;;;;;8.55;2.50;;;;;;;;;;5057027;28;20559;-66
2023/08/12 06:19:31;;;;;;;4.43;1.95;;;;;;;;;;5057446;28;20020;-66
2023/08/12 06:21:57;;;;;;;7.63;2.40;;;;;;;;;;5059262;28;20029;-67
2023/08/12 06:24:23;;;;;;;5.38;2.35;;;;;;;;;;5064561;28;20034;-66
2023/08/12 06:26:49;;;;;;;7.40;2.10;;;;;;;;;;5053820;28;20033;-66
2023/08/12 06:29:15;;;;;;;5.07;2.40;;;;;;;;;;5049727;28;20545;-66
2023/08/12 06:31:42;;;;;;;5.63;2.25;;;;;;;;;;5051563;28;20055;-66
2023/08/12 06:34:08;;;;;;;5.25;2.35;;;;;;;;;;5056016;28;20021;-66
2023/08/12 06:36:34;;;;;;;6.15;1.90;;;;;;;;;;5054254;28;20051;-66
2023/08/12 06:39:00;;;;;;;5.07;2.20;;;;;;;;;;5045145;28;20029;-66
2023/08/12 06:41:26;;;;;;;4.30;2.20;;;;;;;;;;5048959;28;20414;-66
2023/08/12 06:43:52;;;;;;;6.38;2.85;;;;;;;;;;5055267;28;20027;-67
2023/08/12 06:46:18;;;;;;;5.05;2.40;;;;;;;;;;5054233;28;20037;-67
2023/08/12 06:48:44;;;;;;;4.60;2.20;;;;;;;;;;5049949;28;20542;-66
2023/08/12 06:51:10;;;;;;;4.13;2.65;;;;;;;;;;5052677;28;20035;-67
2023/08/12 06:53:37;;;;;;;5.65;2.45;;;;;;;;;;5059801;28;20408;-68
2023/08/12 06:56:04;;;;;;;4.57;2.03;;;;;;;;;;5054562;28;20437;-66
2023/08/12 06:58:31;;;;;;;5.35;2.42;;;;;;;;;;5055551;28;20029;-66
2023/08/12 07:00:58;;;;;;;4.13;2.30;;;;;;;;;;5054391;28;20024;-68
2023/08/12 07:03:25;;;;;;;7.55;2.72;;;;;;;;;;5048044;28;20028;-67
2023/08/12 07:05:51;;;;;;;8.30;2.28;;;;;;;;;;5048246;28;20033;-66
2023/08/12 07:08:22;;;;;;;5.72;2.58;;;;;;;;;;5051619;28;20029;-65
2023/08/12 07:10:48;;;;;;;6.05;2.25;;;;;;;;;;5045911;28;20036;-69
2023/08/12 07:13:14;;;;;;;6.03;2.17;;;;;;;;;;5053600;28;20067;-69
2023/08/12 07:15:40;;;;;;;4.22;2.30;;;;;;;;;;5057345;28;20119;-70
2023/08/12 07:18:06;;;;;;;5.00;2.30;;;;;;;;;;5051757;28;20491;-69
2023/08/12 07:20:33;;;;;;;9.98;2.20;;;;;;;;;;5049317;28;20355;-69
2023/08/12 07:22:59;;;;;;;6.40;1.98;;;;;;;;;;5057224;28;20484;-69
2023/08/12 07:25:25;;;;;;;6.30;2.30;;;;;;;;;;5056409;28;20025;-68
2023/08/12 07:27:51;;;;;;;4.50;2.80;;;;;;;;;;5058270;28;20434;-68
2023/08/12 07:30:17;;;;;;;5.05;2.00;;;;;;;;;;5056338;28;20055;-68
2023/08/12 07:32:43;;;;;;;5.40;2.13;;;;;;;;;;5056422;28;20039;-68
2023/08/12 07:35:09;;;;;;;3.50;2.03;;;;;;;;;;5049088;28;20666;-68
2023/08/12 07:37:35;;;;;;;7.20;2.20;;;;;;;;;;5050747;28;20789;-68
2023/08/12 07:40:03;;;;;;;3.58;1.90;;;;;;;;;;5063751;28;20017;-68
2023/08/12 07:42:29;;;;;;;4.45;2.10;;;;;;;;;;5059718;28;20396;-68
2023/08/12 07:44:55;;;;;;;4.65;2.13;;;;;;;;;;5067155;28;20111;-68
2023/08/12 07:47:21;;;;;;;3.33;1.90;;;;;;;;;;5053050;28;20086;-68
2023/08/12 07:49:47;;;;;;;4.55;1.85;;;;;;;;;;5062276;28;20037;-68
2023/08/12 07:52:13;;;;;;;4.35;1.80;;;;;;;;;;5056143;28;20701;-68
2023/08/12 07:54:39;;;;;;;3.85;2.00;;;;;;;;;;5059717;28;20040;-67
2023/08/12 07:57:06;;;;;;;4.75;2.10;;;;;;;;;;5059806;28;20016;-67
2023/08/12 07:59:32;;;;;;;4.20;1.90;;;;;;;;;;5055496;28;20064;-68
2023/08/12 08:01:58;;;;;;;4.22;1.80;;;;;;;;;;5062581;28;20036;-68
2023/08/12 08:04:24;;;;;;;3.40;1.92;;;;;;;;;;5053706;28;20037;-67
2023/08/12 08:06:50;;;;;;;8.85;2.00;;;;;;;;;;5056264;28;20029;-67
2023/08/12 08:09:16;;;;;;;4.05;1.48;;;;;;;;;;5055907;28;20052;-68
2023/08/12 08:11:42;;;;;;;5.65;1.70;;;;;;;;;;5052177;28;20029;-68
2023/08/12 08:14:09;;;;;;;5.03;1.83;;;;;;;;;;5051108;28;20356;-67
2023/08/12 08:16:35;;;;;;;2.65;1.40;;;;;;;;;;5052172;28;20037;-67
2023/08/12 08:19:01;;;;;;;1.48;1.38;;;;;;;;;;5049312;28;20532;-68
2023/08/12 08:21:27;;;;;;;1.60;1.50;;;;;;;;;;5054300;28;20716;-68
2023/08/12 08:23:53;;;;;;;1.83;1.50;;;;;;;;;;5054063;28;20032;-68
2023/08/12 08:26:20;;;;;;;1.60;1.50;;;;;;;;;;5072314;28;20105;-67
2023/08/12 08:28:46;;;;;;;1.70;1.60;;;;;;;;;;5056080;28;20055;-68
2023/08/12 08:31:12;;;;;;;3.80;1.80;;;;;;;;;;5063850;28;20480;-68
2023/08/12 08:33:38;;;;;;;3.65;1.60;;;;;;;;;;5058920;28;20452;-68
2023/08/12 08:36:05;;;;;;;2.70;1.63;;;;;;;;;;5055167;28;20040;-68
2023/08/12 08:38:31;;;;;;;2.47;1.70;;;;;;;;;;5064776;28;20078;-68
2023/08/12 08:40:58;;;;;;;3.05;1.67;;;;;;;;;;5052085;28;20025;-69
2023/08/12 08:43:28;;;;;;;2.13;1.63;;;;;;;;;;5062335;28;20024;-69
2023/08/12 08:45:54;;;;;;;1.65;1.55;;;;;;;;;;5058575;28;20025;-68
2023/08/12 08:48:21;;;;;;;2.75;1.85;;;;;;;;;;5059242;28;20036;-69
2023/08/12 08:50:47;;;;;;;1.83;1.45;;;;;;;;;;5054325;28;20032;-68
2023/08/12 08:53:14;;;;;;;2.38;1.27;;;;;;;;;;5055556;28;20033;-68
2023/08/12 08:55:43;;;;;;;1.90;1.45;;;;;;;;;;5061510;28;20726;-68
2023/08/12 08:58:09;;;;;;;1.98;1.40;;;;;;;;;;5066099;28;20843;-70
2023/08/12 09:00:36;;;;;;;1.40;1.30;;;;;;;;;;5061520;28;20029;-70
2023/08/12 09:03:03;;;;;;;1.52;1.42;;;;;;;;;;5054498;28;20020;-69
2023/08/12 09:05:30;;;;;;;2.83;1.33;;;;;;;;;;5056134;28;20500;-69
2023/08/12 09:07:57;;;;;;;1.48;1.38;;;;;;;;;;5064937;28;20339;-69
2023/08/12 09:10:25;;;;;;;3.80;1.67;;;;;;;;;;5057502;28;20059;-68
2023/08/12 09:12:52;;;;;;;1.55;1.30;;;;;;;;;;5056963;28;20029;-69
2023/08/12 09:15:18;;;;;;;2.33;1.60;;;;;;;;;;5055011;28;20154;-68
2023/08/12 09:17:45;;;;;;;2.50;1.42;;;;;;;;;;5055072;28;20028;-69
2023/08/12 09:20:11;;;;;;;3.38;1.83;;;;;;;;;;5045543;28;20492;-69
2023/08/12 09:22:38;;;;;;;4.72;1.75;;;;;;;;;;5042102;28;20057;-69
2023/08/12 09:25:04;;;;;;;2.97;1.70;;;;;;;;;;5045877;28;20032;-68
2023/08/12 09:27:34;;;;;;;2.03;1.80;;;;;;;;;;5048663;28;20025;-69
2023/08/12 09:30:03;;;;;;;2.63;1.35;;;;;;;;;;5048879;28;20175;-69
2023/08/12 09:32:29;;;;;;;4.20;1.73;;;;;;;;;;5049840;28;20373;-68
2023/08/12 09:34:56;;;;;;;3.05;1.75;;;;;;;;;;5045767;28;20052;-69
2023/08/12 09:37:23;;;;;;;2.60;1.33;;;;;;;;;;5055119;28;20085;-69
2023/08/12 09:39:53;;;;;;;3.90;1.63;;;;;;;;;;5048536;28;20020;-69
2023/08/12 09:42:19;;;;;;;4.63;1.65;;;;;;;;;;5052722;28;20338;-69
2023/08/12 09:44:46;;;;;;;2.25;1.52;;;;;;;;;;5055068;28;20068;-69
2023/08/12 09:47:12;;;;;;;3.17;1.90;;;;;;;;;;5044301;28;20045;-68
2023/08/12 09:49:39;;;;;;;5.55;1.70;;;;;;;;;;5055115;28;20070;-68
2023/08/12 09:52:06;;;;;;;3.90;1.67;;;;;;;;;;5051157;28;20542;-68
2023/08/12 09:54:32;;;;;;;5.32;2.03;;;;;;;;;;5058881;28;20446;-69
2023/08/12 09:57:00;;;;;;;2.58;1.80;;;;;;;;;;5053099;28;20578;-69
2023/08/12 09:59:28;;;;;;;1.50;1.40;;;;;;;;;;5050702;28;20024;-69
2023/08/12 10:01:55;;;;;;;4.35;1.77;;;;;;;;;;5051308;28;20644;-69
2023/08/12 10:04:23;;;;;;;2.85;1.65;;;;;;;;;;5046814;28;20163;-69
2023/08/12 10:06:49;;;;;;;5.40;2.00;;;;;;;;;;5052127;28;20139;-70
2023/08/12 10:09:16;;;;;;;10.57;2.80;;;;;;;;;;5046356;28;20040;-70
2023/08/12 10:11:46;;;;;;;3.25;1.80;;;;;;;;;;5055298;28;20038;-69
2023/08/12 10:14:13;;;;;;;3.80;1.60;;;;;;;;;;5051917;28;20056;-69
2023/08/12 10:16:40;;;;;;;3.33;2.05;;;;;;;;;;5052580;28;20653;-69
2023/08/12 10:19:06;;;;;;;3.72;1.75;;;;;;;;;;5054266;28;20021;-69
2023/08/12 10:21:33;;;;;;;5.30;1.70;;;;;;;;;;5062187;28;20029;-69
2023/08/12 10:23:59;;;;;;;3.35;1.77;;;;;;;;;;5053803;28;20021;-69
2023/08/12 10:26:25;;;;;;;3.17;1.80;;;;;;;;;;5052717;28;20059;-69
2023/08/12 10:28:52;;;;;;;4.45;2.50;;;;;;;;;;5053325;28;20369;-69
2023/08/12 10:31:19;;;;;;;2.60;1.92;;;;;;;;;;5054788;28;20033;-69
2023/08/12 10:33:49;;;;;;;2.08;1.50;;;;;;;;;;5051419;28;20036;-69
2023/08/12 10:36:16;;;;;;;4.00;2.17;;;;;;;;;;5050211;28;20051;-69
2023/08/12 10:38:44;;;;;;;2.00;1.45;;;;;;;;;;5048466;28;20028;-69
2023/08/12 10:41:16;;;;;;;3.08;1.77;;;;;;;;;;5053772;28;20032;-69
2023/08/12 10:44:09;;;;;;;3.45;1.55;;;;;;;;;;5055812;28;20016;-69
2023/08/12 10:46:36;;;;;;;3.20;1.45;;;;;;;;;;5048557;28;20135;-69
2023/08/12 10:49:09;;;;;;;6.20;1.95;;;;;;;;;;5051881;28;20480;-69
2023/08/12 10:51:43;;;;;;;6.25;2.05;;;;;;;;;;5062297;28;20060;-69
2023/08/12 10:54:16;;;;;;;2.58;1.75;;;;;;;;;;5053163;28;20036;-69
2023/08/12 10:57:00;;;;;;;3.17;1.98;;;;;;;;;;5055503;28;20046;-68
2023/08/12 10:59:45;;;;;;;3.13;1.58;;;;;;;;;;5054112;28;20029;-68
2023/08/12 11:02:20;;;;;;;5.68;1.83;;;;;;;;;;5061378;28;20150;-69
2023/08/12 11:04:50;;;;;;;2.13;1.55;;;;;;;;;;5058585;28;20032;-69
2023/08/12 11:07:16;;;;;;;4.57;2.10;;;;;;;;;;5063805;28;20043;-69
2023/08/12 11:09:43;;;;;;;3.70;1.98;;;;;;;;;;5056551;28;20039;-69
2023/08/12 11:12:10;;;;;;;3.08;1.90;;;;;;;;;;5062559;28;20032;-69
2023/08/12 11:14:55;;;;;;;3.65;2.25;;;;;;;;;;5059293;28;20408;-69
2023/08/12 11:17:28;;;;;;;2.30;1.70;;;;;;;;;;5075698;28;20067;-69
2023/08/12 11:19:54;;;;;;;3.35;1.90;;;;;;;;;;5050665;28;20538;-69
2023/08/12 11:22:20;;;;;;;3.28;1.83;;;;;;;;;;5054476;28;20033;-69
2023/08/12 11:24:46;;;;;;;3.20;1.73;;;;;;;;;;5055351;28;20029;-69
2023/08/12 11:27:12;;;;;;;4.63;1.75;;;;;;;;;;5056377;28;20038;-69
2023/08/12 11:29:38;;;;;;;2.95;1.60;;;;;;;;;;5062162;28;20056;-69
2023/08/12 11:32:06;;;;;;;3.53;2.03;;;;;;;;;;5055127;28;20037;-69
2023/08/12 11:34:32;;;;;;;3.10;1.70;;;;;;;;;;5052529;28;20424;-69
2023/08/12 11:36:59;;;;;;;3.85;1.77;;;;;;;;;;5054470;28;20021;-69
2023/08/12 11:39:25;;;;;;;3.25;1.55;;;;;;;;;;5053518;28;20035;-69
2023/08/12 11:41:52;;;;;;;2.72;1.70;;;;;;;;;;5058821;28;20510;-70
2023/08/12 11:44:21;;;;;;;4.20;2.10;;;;;;;;;;5062952;28;20380;-69
2023/08/12 11:46:47;;;;;;;2.78;1.60;;;;;;;;;;5054033;28;20447;-69
2023/08/12 11:49:14;;;;;;;6.20;1.80;;;;;;;;;;5056331;28;20033;-69
2023/08/12 11:51:40;;;;;;;3.17;1.80;;;;;;;;;;5063300;28;20475;-69
2023/08/12 11:54:07;;;;;;;2.17;1.80;;;;;;;;;;5056939;28;20029;-69
2023/08/12 11:56:33;;;;;;;6.43;1.95;;;;;;;;;;5060412;28;20032;-69
2023/08/12 11:58:59;;;;;;;3.22;1.63;;;;;;;;;;5073299;28;20029;-69
2023/08/12 12:01:28;;;;;;;3.90;1.50;;;;;;;;;;5053810;28;20035;-69
2023/08/12 12:03:54;;;;;;;2.65;1.92;;;;;;;;;;5046081;28;20029;-65
2023/08/12 12:06:30;;;;;;;4.72;1.88;;;;;;;;;;5060264;28;20033;-64
2023/08/12 12:08:56;;;;;;;6.45;3.08;;;;;;;;;;5051177;28;20721;-66
2023/08/12 12:11:23;;;;;;;4.85;2.03;;;;;;;;;;5057939;28;20113;-66
2023/08/12 12:13:49;;;;;;;2.45;1.60;;;;;;;;;;5058386;28;20078;-65
2023/08/12 12:16:15;;;;;;;3.67;1.70;;;;;;;;;;5053659;28;20033;-67
2023/08/12 12:18:41;;;;;;;5.57;1.70;;;;;;;;;;5057876;28;20052;-67
2023/08/12 12:21:08;;;;;;;2.85;1.63;;;;;;;;;;5055201;28;20025;-66
2023/08/12 12:23:37;;;;;;;1.98;1.75;;;;;;;;;;5049012;28;21270;-67
2023/08/12 12:26:04;;;;;;;4.50;2.40;;;;;;;;;;5045712;28;20510;-66
2023/08/12 12:28:31;;;;;;;2.90;2.08;;;;;;;;;;5055801;28;20198;-66
2023/08/12 12:30:57;;;;;;;5.28;2.00;;;;;;;;;;5056725;28;20024;-67
2023/08/12 12:33:23;;;;;;;2.22;1.73;;;;;;;;;;5047916;28;20036;-67
2023/08/12 12:35:50;;;;;;;3.58;2.10;;;;;;;;;;5048567;28;20068;-67
2023/08/12 12:38:16;;;;;;;3.22;1.70;;;;;;;;;;5057287;28;20036;-67
2023/08/12 12:40:42;;;;;;;3.25;1.75;;;;;;;;;;5052458;28;20027;-68
2023/08/12 12:43:08;;;;;;;2.22;1.80;;;;;;;;;;5051835;28;20083;-68
2023/08/12 12:45:34;;;;;;;2.35;1.70;;;;;;;;;;5052475;28;20058;-67
2023/08/12 12:48:01;;;;;;;2.42;1.63;;;;;;;;;;5058212;28;20040;-67
2023/08/12 12:50:27;;;;;;;14.55;2.45;;;;;;;;;;5051548;28;20167;-67
2023/08/12 12:52:53;;;;;;;2.92;2.05;;;;;;;;;;5056918;28;20102;-66
2023/08/12 12:55:20;;;;;;;4.43;2.40;;;;;;;;;;5054649;28;20033;-67
2023/08/12 12:57:46;;;;;;;4.68;2.03;;;;;;;;;;5052794;28;20078;-68
2023/08/12 13:00:12;;;;;;;4.10;2.10;;;;;;;;;;5048515;28;20029;-67
2023/08/12 13:02:39;;;;;;;3.33;1.70;;;;;;;;;;5051735;28;20041;-67
2023/08/12 13:05:05;;;;;;;2.75;1.60;;;;;;;;;;5051526;28;20040;-68
2023/08/12 13:07:31;;;;;;;3.38;1.88;;;;;;;;;;5051271;28;20163;-68
2023/08/12 13:09:57;;;;;;;2.90;2.42;;;;;;;;;;5049741;28;20024;-69
2023/08/12 13:12:23;;;;;;;3.17;2.00;;;;;;;;;;5067134;28;20032;-68
2023/08/12 13:14:49;;;;;;;1.92;1.75;;;;;;;;;;5055113;28;20071;-68
2023/08/12 13:17:16;;;;;;;2.00;1.75;;;;;;;;;;5050852;28;20031;-68
2023/08/12 13:19:42;;;;;;;4.97;1.38;;;;;;;;;;5067075;28;20078;-68
2023/08/12 13:22:08;;;;;;;5.15;1.85;;;;;;;;;;5049733;28;20498;-68
2023/08/12 13:24:34;;;;;;;2.88;1.75;;;;;;;;;;5051438;28;20032;-68
2023/08/12 13:27:00;;;;;;;2.10;1.80;;;;;;;;;;5052754;28;20040;-68
2023/08/12 13:29:26;;;;;;;3.33;1.55;;;;;;;;;;5061394;28;20039;-67
2023/08/12 13:31:52;;;;;;;2.35;1.83;;;;;;;;;;5048116;28;20040;-68
2023/08/12 13:34:18;;;;;;;2.00;1.65;;;;;;;;;;5052735;28;20443;-67
2023/08/12 13:36:44;;;;;;;3.55;1.80;;;;;;;;;;5047880;28;20028;-68
2023/08/12 13:39:11;;;;;;;2.65;2.20;;;;;;;;;;5055412;28;20768;-68
2023/08/12 13:41:37;;;;;;;2.75;1.63;;;;;;;;;;5054479;28;20107;-67
2023/08/12 13:44:03;;;;;;;4.25;1.50;;;;;;;;;;5057378;28;20465;-68
2023/08/12 13:46:29;;;;;;;4.65;1.80;;;;;;;;;;5062505;28;20056;-67
2023/08/12 13:48:58;;;;;;;4.72;1.90;;;;;;;;;;5053018;28;20052;-68
2023/08/12 13:51:25;;;;;;;3.97;2.15;;;;;;;;;;5050088;28;20085;-67
2023/08/12 13:53:51;;;;;;;4.15;2.22;;;;;;;;;;5066998;28;20029;-68
2023/08/12 13:56:17;;;;;;;5.97;3.58;;;;;;;;;;5051204;28;20028;-67
2023/08/12 13:58:43;;;;;;;4.07;2.13;;;;;;;;;;5048368;28;20476;-68
2023/08/12 14:01:09;;;;;;;3.60;1.80;;;;;;;;;;5054477;28;20031;-67
2023/08/12 14:03:38;;;;;;;3.08;1.90;;;;;;;;;;5048821;28;20038;-68
2023/08/12 14:06:04;;;;;;;2.58;1.85;;;;;;;;;;5057503;28;20028;-68
2023/08/12 14:08:30;;;;;;;4.30;2.20;;;;;;;;;;5052656;28;20159;-68
2023/08/12 14:10:57;;;;;;;4.20;2.00;;;;;;;;;;5064769;28;20493;-68
2023/08/12 14:13:23;;;;;;;5.93;2.00;;;;;;;;;;5049009;28;20569;-67
2023/08/12 14:15:49;;;;;;;2.47;1.60;;;;;;;;;;5056697;28;20025;-68
2023/08/12 14:18:15;;;;;;;1.85;1.65;;;;;;;;;;5044503;28;20455;-68
2023/08/12 14:20:42;;;;;;;1.92;1.60;;;;;;;;;;5045714;28;20029;-67
2023/08/12 14:23:08;;;;;;;3.22;1.70;;;;;;;;;;5047426;28;20020;-68
2023/08/12 14:25:34;;;;;;;4.00;2.08;;;;;;;;;;5052191;28;20100;-69
2023/08/12 14:28:00;;;;;;;4.95;1.92;;;;;;;;;;5048903;28;21297;-67
2023/08/12 14:30:26;;;;;;;2.88;1.90;;;;;;;;;;5053047;28;20443;-68
2023/08/12 14:32:53;;;;;;;3.85;2.45;;;;;;;;;;5055821;28;20032;-69
2023/08/12 14:35:19;;;;;;;3.47;2.40;;;;;;;;;;5008533;28;1351279;-68
2023/08/12 14:37:45;;;;;;;3.60;2.22;;;;;;;;;;5050578;28;20403;-68